Time;durP1;ratioP1;P1;durP2;ratioP2;P2;SDS_P1;SDS_P2;PMS_P1;PMS_P2;Temp;Humidity;BMP_temperature;BMP_pressure;BME280_temperature;BME280_humidity;BME280_pressure;Samples;Min_cycle;Max_cycle;Signal;HPM_P1;HPM_P2
2023/03/08 00:00:12;;;;;;;8.23;5.35;;;;;;;;;;10203133;28;20051;-78
2023/03/08 00:05:13;;;;;;;8.25;5.15;;;;;;;;;;10203559;29;20040;-78
2023/03/08 00:10:13;;;;;;;10.23;5.75;;;;;;;;;;10199564;29;20147;-78
2023/03/08 00:15:14;;;;;;;10.32;5.55;;;;;;;;;;10200332;29;20126;-75
2023/03/08 00:20:15;;;;;;;9.40;5.40;;;;;;;;;;10198457;29;20054;-78
2023/03/08 00:25:16;;;;;;;9.70;5.18;;;;;;;;;;10199163;29;20139;-81
2023/03/08 00:30:18;;;;;;;9.85;5.57;;;;;;;;;;10197043;28;20051;-79
2023/03/08 00:35:19;;;;;;;9.13;6.07;;;;;;;;;;10197440;29;20141;-77
2023/03/08 00:40:20;;;;;;;8.65;5.35;;;;;;;;;;10197768;29;20047;-75
2023/03/08 00:45:21;;;;;;;7.85;4.78;;;;;;;;;;10197930;29;20056;-78
2023/03/08 00:50:22;;;;;;;9.38;5.20;;;;;;;;;;10199667;29;20052;-76
2023/03/08 00:55:22;;;;;;;8.18;5.22;;;;;;;;;;10177549;29;20139;-77
2023/03/08 01:00:24;;;;;;;7.75;5.13;;;;;;;;;;10179996;29;20051;-77
2023/03/08 01:05:25;;;;;;;7.88;5.03;;;;;;;;;;10164085;29;20070;-78
2023/03/08 01:10:26;;;;;;;7.70;4.88;;;;;;;;;;10203192;29;20044;-79
2023/03/08 01:15:28;;;;;;;10.23;5.80;;;;;;;;;;10187316;29;20048;-79
2023/03/08 01:20:30;;;;;;;9.30;5.20;;;;;;;;;;10187178;29;20428;-77
2023/03/08 01:25:31;;;;;;;8.98;5.45;;;;;;;;;;10192656;29;20052;-76
2023/03/08 01:30:32;;;;;;;7.78;5.05;;;;;;;;;;10198670;29;20055;-78
2023/03/08 01:35:33;;;;;;;10.55;5.32;;;;;;;;;;10186537;29;20147;-78
2023/03/08 01:40:38;;;;;;;8.50;5.28;;;;;;;;;;10244504;29;20038;-79
2023/03/08 01:45:57;;;;;;;9.70;6.00;;;;;;;;;;10236277;29;20027;-82
2023/03/08 01:50:59;;;;;;;9.57;5.40;;;;;;;;;;10234823;29;20068;-77
2023/03/08 01:56:00;;;;;;;9.52;6.10;;;;;;;;;;10212988;29;20060;-78
2023/03/08 02:01:01;;;;;;;9.75;5.85;;;;;;;;;;10188218;29;20076;-79
2023/03/08 02:06:03;;;;;;;9.85;5.57;;;;;;;;;;10869781;23;20101;-76
2023/03/08 02:11:04;;;;;;;7.40;5.05;;;;;;;;;;10216172;28;20851;-76
2023/03/08 02:16:10;;;;;;;9.13;5.22;;;;;;;;;;10218916;28;20059;-79
2023/03/08 02:21:12;;;;;;;9.32;6.03;;;;;;;;;;10200196;29;20078;-82
2023/03/08 02:26:14;;;;;;;;;;;;;;;;;;10198088;29;20464;-77
2023/03/08 02:31:15;;;;;;;10.47;5.73;;;;;;;;;;10222263;28;19929;-76
2023/03/08 02:36:17;;;;;;;9.93;5.32;;;;;;;;;;10208072;29;20048;-77
2023/03/08 02:41:19;;;;;;;9.43;5.43;;;;;;;;;;10219454;29;20822;-78
2023/03/08 02:46:23;;;;;;;9.20;5.32;;;;;;;;;;10224219;29;20167;-77
2023/03/08 02:51:24;;;;;;;9.60;5.60;;;;;;;;;;10208153;28;20047;-76
2023/03/08 02:56:25;;;;;;;12.05;6.18;;;;;;;;;;10246319;28;20055;-80
2023/03/08 03:01:28;;;;;;;8.13;5.45;;;;;;;;;;10264185;28;20051;-76
2023/03/08 03:06:28;;;;;;;;;;;;;;;;;;10237816;28;20075;-77
2023/03/08 03:11:33;;;;;;;10.73;6.13;;;;;;;;;;10237785;28;19930;-78
2023/03/08 03:16:35;;;;;;;9.05;5.28;;;;;;;;;;10207820;28;20093;-77
2023/03/08 03:21:37;;;;;;;8.95;5.95;;;;;;;;;;10188001;28;20047;-78
2023/03/08 03:26:38;;;;;;;9.45;5.95;;;;;;;;;;10206566;28;20495;-80
2023/03/08 03:31:38;;;;;;;7.75;5.05;;;;;;;;;;10216556;28;20043;-78
2023/03/08 03:36:39;;;;;;;9.23;5.65;;;;;;;;;;10200219;28;20055;-80
2023/03/08 03:41:46;;;;;;;11.32;5.80;;;;;;;;;;10208960;28;20500;-77
2023/03/08 03:46:48;;;;;;;10.55;5.13;;;;;;;;;;10224760;28;20103;-78
2023/03/08 03:51:56;;;;;;;9.23;5.43;;;;;;;;;;10215009;28;20238;-80
2023/03/08 03:57:01;;;;;;;10.70;5.53;;;;;;;;;;10201623;28;20059;-77
2023/03/08 04:02:06;;;;;;;9.82;5.28;;;;;;;;;;10205963;28;21059;-79
2023/03/08 04:07:18;;;;;;;9.68;5.78;;;;;;;;;;10210476;28;20444;-77
2023/03/08 04:12:28;;;;;;;7.72;5.40;;;;;;;;;;10202213;28;20047;-77
2023/03/08 04:17:30;;;;;;;10.98;5.80;;;;;;;;;;10228913;28;20055;-77
2023/03/08 04:22:30;;;;;;;9.88;5.63;;;;;;;;;;10206802;28;20055;-76
2023/03/08 04:27:41;;;;;;;10.23;5.65;;;;;;;;;;10178155;29;20044;-79
2023/03/08 04:32:43;;;;;;;9.82;5.20;;;;;;;;;;10181732;29;20111;-82
2023/03/08 04:37:47;;;;;;;12.20;6.53;;;;;;;;;;10201519;29;20179;-78
2023/03/08 04:42:52;;;;;;;9.00;5.20;;;;;;;;;;10176830;29;20052;-79
2023/03/08 04:47:58;;;;;;;10.18;6.18;;;;;;;;;;10213405;29;20071;-79
2023/03/08 04:52:58;;;;;;;9.75;5.65;;;;;;;;;;10196405;29;20054;-77
2023/03/08 04:58:00;;;;;;;11.50;6.38;;;;;;;;;;10240988;29;20086;-75
2023/03/08 05:03:03;;;;;;;10.10;5.75;;;;;;;;;;10231164;29;20054;-76
2023/03/08 05:08:04;;;;;;;11.55;5.57;;;;;;;;;;10221482;29;20067;-76
2023/03/08 05:13:06;;;;;;;14.10;6.72;;;;;;;;;;10184114;29;20396;-77
2023/03/08 05:18:08;;;;;;;10.63;6.13;;;;;;;;;;10189076;29;20067;-78
2023/03/08 05:23:11;;;;;;;9.90;5.60;;;;;;;;;;10160809;29;20063;-76
2023/03/08 05:28:15;;;;;;;;;;;;;;;;;;10177324;29;20067;-78
2023/03/08 05:33:16;;;;;;;9.98;6.13;;;;;;;;;;10170229;29;19918;-80
2023/03/08 05:38:17;;;;;;;13.40;6.60;;;;;;;;;;10189469;29;20552;-81
2023/03/08 05:43:19;;;;;;;10.80;6.25;;;;;;;;;;10175400;29;20051;-76
2023/03/08 05:48:19;;;;;;;12.77;6.70;;;;;;;;;;10171614;29;20055;-78
2023/03/08 05:53:21;;;;;;;11.85;7.22;;;;;;;;;;10174467;28;20052;-79
2023/03/08 05:58:22;;;;;;;10.13;6.32;;;;;;;;;;10196097;28;20056;-79
2023/03/08 06:03:23;;;;;;;13.00;7.05;;;;;;;;;;10174970;29;20488;-79
2023/03/08 06:08:24;;;;;;;10.23;6.55;;;;;;;;;;10186171;29;20399;-78
2023/03/08 06:13:26;;;;;;;18.92;6.95;;;;;;;;;;10176166;29;20055;-78
2023/03/08 06:18:27;;;;;;;12.35;6.88;;;;;;;;;;10193142;29;20075;-79
2023/03/08 06:23:29;;;;;;;13.32;7.53;;;;;;;;;;10210476;29;20059;-81
2023/03/08 06:28:30;;;;;;;12.18;7.50;;;;;;;;;;10196072;29;20077;-81
2023/03/08 06:33:32;;;;;;;11.57;6.30;;;;;;;;;;10174774;29;20912;-79
2023/03/08 06:38:36;;;;;;;11.18;6.88;;;;;;;;;;10186689;29;20151;-77
2023/03/08 06:43:40;;;;;;;11.90;6.63;;;;;;;;;;10166653;29;20048;-75
2023/03/08 06:48:41;;;;;;;13.25;6.85;;;;;;;;;;10175579;29;20192;-79
2023/03/08 06:53:43;;;;;;;13.63;6.97;;;;;;;;;;10180388;29;20055;-79
2023/03/08 06:58:50;;;;;;;12.23;7.55;;;;;;;;;;10165331;29;20063;-79
2023/03/08 07:03:52;;;;;;;11.68;6.10;;;;;;;;;;10177520;29;20056;-79
2023/03/08 07:08:53;;;;;;;12.70;7.10;;;;;;;;;;10185494;29;20108;-79
2023/03/08 07:13:53;;;;;;;12.80;6.32;;;;;;;;;;10181479;29;20052;-79
2023/03/08 07:18:55;;;;;;;12.95;7.13;;;;;;;;;;10193072;29;20111;-77
2023/03/08 07:23:56;;;;;;;15.85;8.20;;;;;;;;;;10200228;29;20056;-76
2023/03/08 07:28:56;;;;;;;11.55;6.50;;;;;;;;;;10218995;29;20097;-77
2023/03/08 07:33:58;;;;;;;12.98;6.65;;;;;;;;;;10197738;29;20055;-77
2023/03/08 07:39:00;;;;;;;10.00;5.80;;;;;;;;;;10187410;29;20496;-76
2023/03/08 07:44:01;;;;;;;11.05;6.30;;;;;;;;;;10198753;29;20079;-77
2023/03/08 07:49:01;;;;;;;10.23;6.22;;;;;;;;;;10188198;29;20048;-80
2023/03/08 07:54:02;;;;;;;13.50;7.00;;;;;;;;;;10181106;29;20056;-77
2023/03/08 07:59:02;;;;;;;12.32;6.47;;;;;;;;;;10193816;29;20064;-78
2023/03/08 08:04:03;;;;;;;11.50;6.25;;;;;;;;;;10190136;28;20082;-78
2023/03/08 08:09:04;;;;;;;11.68;6.28;;;;;;;;;;10179905;29;20650;-78
2023/03/08 08:14:04;;;;;;;10.55;6.50;;;;;;;;;;10206232;29;20077;-76
2023/03/08 08:19:05;;;;;;;12.20;6.70;;;;;;;;;;10212839;29;20060;-76
2023/03/08 08:24:06;;;;;;;12.30;6.97;;;;;;;;;;10175466;29;20058;-76
2023/03/08 08:29:06;;;;;;;13.38;6.47;;;;;;;;;;10192120;29;20048;-75
2023/03/08 08:34:07;;;;;;;13.07;7.20;;;;;;;;;;10185653;29;20048;-76
2023/03/08 08:39:10;;;;;;;14.10;6.68;;;;;;;;;;10187088;29;20155;-76
2023/03/08 08:44:11;;;;;;;12.07;6.90;;;;;;;;;;10169825;29;20054;-77
2023/03/08 08:49:11;;;;;;;14.43;8.32;;;;;;;;;;10181926;29;20046;-75
2023/03/08 08:54:16;;;;;;;17.05;8.52;;;;;;;;;;10169172;29;20051;-76
2023/03/08 08:59:16;;;;;;;17.13;8.38;;;;;;;;;;10184667;29;20550;-76
2023/03/08 09:04:18;;;;;;;20.45;8.18;;;;;;;;;;10168807;29;20055;-76
2023/03/08 09:09:18;;;;;;;15.63;8.55;;;;;;;;;;10164043;29;20075;-77
2023/03/08 09:14:20;;;;;;;19.00;8.65;;;;;;;;;;10188247;29;20048;-77
2023/03/08 09:19:24;;;;;;;15.88;8.68;;;;;;;;;;10186583;29;20127;-76
2023/03/08 09:24:28;;;;;;;18.23;9.63;;;;;;;;;;10184934;29;20804;-76
2023/03/08 09:29:29;;;;;;;19.70;10.30;;;;;;;;;;10187044;29;20039;-78
2023/03/08 09:34:29;;;;;;;17.48;9.30;;;;;;;;;;10186963;29;20039;-77
2023/03/08 09:39:32;;;;;;;20.92;10.30;;;;;;;;;;10185789;28;20056;-76
2023/03/08 09:44:42;;;;;;;18.30;9.82;;;;;;;;;;10171166;29;20132;-76
2023/03/08 09:49:44;;;;;;;21.42;10.52;;;;;;;;;;10185614;29;20044;-78
2023/03/08 09:54:45;;;;;;;21.45;11.45;;;;;;;;;;10184213;29;20053;-76
2023/03/08 09:59:48;;;;;;;24.67;11.32;;;;;;;;;;10185890;29;20142;-79
2023/03/08 10:04:54;;;;;;;22.98;11.75;;;;;;;;;;10163080;29;20099;-77
2023/03/08 10:10:02;;;;;;;23.58;12.27;;;;;;;;;;10179740;29;20144;-80
2023/03/08 10:15:04;;;;;;;24.70;12.32;;;;;;;;;;10164987;29;20054;-75
2023/03/08 10:20:12;;;;;;;30.20;14.23;;;;;;;;;;10188036;29;20130;-77
2023/03/08 10:25:18;;;;;;;29.55;14.27;;;;;;;;;;10186741;29;20052;-78
2023/03/08 10:30:20;;;;;;;31.10;13.88;;;;;;;;;;10167484;29;20151;-79
2023/03/08 10:35:30;;;;;;;29.63;14.02;;;;;;;;;;10186184;29;20092;-78
2023/03/08 10:40:31;;;;;;;32.72;15.73;;;;;;;;;;10175639;29;20056;-78
2023/03/08 10:45:32;;;;;;;36.25;16.60;;;;;;;;;;10194242;29;20063;-76
2023/03/08 10:50:37;;;;;;;30.27;15.48;;;;;;;;;;10192573;29;20054;-78
2023/03/08 10:55:50;;;;;;;32.85;16.63;;;;;;;;;;10194205;29;20040;-79
2023/03/08 11:00:53;;;;;;;35.58;16.83;;;;;;;;;;10169980;29;20126;-77
2023/03/08 11:06:00;;;;;;;37.17;17.17;;;;;;;;;;10172827;29;20058;-80
2023/03/08 11:11:05;;;;;;;34.55;17.52;;;;;;;;;;10175008;29;20052;-77
2023/03/08 11:16:13;;;;;;;40.15;19.13;;;;;;;;;;10191493;29;20143;-77
2023/03/08 11:21:23;;;;;;;42.92;20.48;;;;;;;;;;10191528;29;20143;-76
2023/03/08 11:26:37;;;;;;;39.28;18.58;;;;;;;;;;10225596;29;20480;-75
2023/03/08 11:31:53;;;;;;;41.95;19.30;;;;;;;;;;10221391;29;20058;-79
2023/03/08 11:37:12;;;;;;;43.03;19.75;;;;;;;;;;10182129;29;20044;-77
2023/03/08 11:42:25;;;;;;;43.92;20.60;;;;;;;;;;10185435;29;20055;-77
2023/03/08 11:47:25;;;;;;;42.13;20.60;;;;;;;;;;10188956;29;20496;-78
2023/03/08 11:52:34;;;;;;;41.47;19.87;;;;;;;;;;10169317;29;20123;-78
2023/03/08 11:57:37;;;;;;;36.25;18.77;;;;;;;;;;10173375;29;20350;-76
2023/03/08 12:02:40;;;;;;;44.10;20.30;;;;;;;;;;10186698;29;20059;-76
2023/03/08 12:07:43;;;;;;;41.05;20.27;;;;;;;;;;10189766;29;20304;-76
2023/03/08 12:12:47;;;;;;;44.53;19.88;;;;;;;;;;10168948;29;20047;-77
2023/03/08 12:18:10;;;;;;;40.50;19.83;;;;;;;;;;10183800;29;20059;-76
2023/03/08 12:23:17;;;;;;;39.95;19.40;;;;;;;;;;10168638;29;20124;-75
2023/03/08 12:28:23;;;;;;;48.35;21.85;;;;;;;;;;10192664;29;20055;-78
2023/03/08 12:33:24;;;;;;;39.42;19.90;;;;;;;;;;10190378;29;20773;-74
2023/03/08 12:38:33;;;;;;;46.03;21.58;;;;;;;;;;10189208;29;20131;-76
2023/03/08 12:43:35;;;;;;;45.85;21.70;;;;;;;;;;10186460;29;20075;-76
2023/03/08 12:48:45;;;;;;;43.22;20.83;;;;;;;;;;10188233;29;20052;-77
2023/03/08 12:53:49;;;;;;;48.67;23.13;;;;;;;;;;10193361;29;20059;-76
2023/03/08 12:58:50;;;;;;;;;;;;;;;;;;10175610;29;20059;-76
2023/03/08 13:03:50;;;;;;;46.33;21.23;;;;;;;;;;10189174;29;19915;-76
2023/03/08 13:09:05;;;;;;;53.40;22.03;;;;;;;;;;10290369;23;20649;-76
2023/03/08 13:14:41;;;;;;;45.33;22.08;;;;;;;;;;10312414;28;20289;-75
2023/03/08 13:19:45;;;;;;;45.92;22.23;;;;;;;;;;10239590;28;20073;-78
2023/03/08 13:24:56;;;;;;;49.00;22.90;;;;;;;;;;10303137;28;20046;-76
2023/03/08 13:30:00;;;;;;;46.20;22.92;;;;;;;;;;10291928;28;20050;-76
2023/03/08 13:35:02;;;;;;;47.70;22.95;;;;;;;;;;10298541;28;20046;-73
2023/03/08 13:40:06;;;;;;;47.72;23.73;;;;;;;;;;10283379;28;20106;-79
2023/03/08 13:45:09;;;;;;;50.88;22.60;;;;;;;;;;10284627;28;20057;-76
2023/03/08 13:50:16;;;;;;;42.17;21.08;;;;;;;;;;10269444;28;20042;-75
2023/03/08 13:55:19;;;;;;;41.53;20.67;;;;;;;;;;10302117;28;20073;-79
2023/03/08 14:00:32;;;;;;;42.97;20.98;;;;;;;;;;10272683;28;20138;-78
2023/03/08 14:05:44;;;;;;;39.25;20.33;;;;;;;;;;10299826;28;20054;-75
2023/03/08 14:10:46;;;;;;;43.10;21.40;;;;;;;;;;10309104;28;20058;-77
2023/03/08 14:15:48;;;;;;;41.22;20.08;;;;;;;;;;10293004;28;20161;-78
2023/03/08 14:20:59;;;;;;;41.08;19.27;;;;;;;;;;10310752;28;20077;-76
2023/03/08 14:25:59;;;;;;;39.70;21.08;;;;;;;;;;10308033;28;20054;-73
2023/03/08 14:30:59;;;;;;;45.22;20.00;;;;;;;;;;10308572;28;20089;-75
2023/03/08 14:36:00;;;;;;;37.40;18.38;;;;;;;;;;10293526;28;20105;-73
2023/03/08 14:41:02;;;;;;;39.92;18.75;;;;;;;;;;10302517;28;20586;-75
2023/03/08 14:46:07;;;;;;;32.03;17.35;;;;;;;;;;10315685;28;20061;-75
2023/03/08 14:51:18;;;;;;;40.03;19.65;;;;;;;;;;10296017;28;20056;-74
2023/03/08 14:56:19;;;;;;;38.03;19.02;;;;;;;;;;10306235;28;20062;-74
2023/03/08 15:01:26;;;;;;;36.38;19.00;;;;;;;;;;10308713;28;20061;-74
2023/03/08 15:06:28;;;;;;;34.60;17.95;;;;;;;;;;10310083;28;20117;-74
2023/03/08 15:11:30;;;;;;;38.47;19.90;;;;;;;;;;10308960;28;20038;-74
2023/03/08 15:16:30;;;;;;;36.13;18.65;;;;;;;;;;10311353;28;20169;-74
2023/03/08 15:21:32;;;;;;;35.20;19.48;;;;;;;;;;10305281;28;20405;-71
2023/03/08 15:26:32;;;;;;;35.03;18.58;;;;;;;;;;10307091;28;20046;-71
2023/03/08 15:31:33;;;;;;;30.30;17.63;;;;;;;;;;10300822;28;20642;-73
2023/03/08 15:36:34;;;;;;;35.55;18.70;;;;;;;;;;10313091;28;20056;-73
2023/03/08 15:41:34;;;;;;;32.15;17.35;;;;;;;;;;10294696;28;20169;-76
2023/03/08 15:46:35;;;;;;;33.13;17.87;;;;;;;;;;10300582;28;20046;-77
2023/03/08 15:51:36;;;;;;;34.25;18.20;;;;;;;;;;10315766;28;21299;-80
2023/03/08 15:56:37;;;;;;;35.63;20.13;;;;;;;;;;10311720;28;20058;-74
2023/03/08 16:01:37;;;;;;;33.00;18.95;;;;;;;;;;10308014;28;20086;-75
2023/03/08 16:06:39;;;;;;;20.33;12.25;;;;;;;;;;10295456;28;20073;-75
2023/03/08 16:11:40;;;;;;;11.03;5.87;;;;;;;;;;10291632;28;20046;-75
2023/03/08 16:16:41;;;;;;;4.57;3.07;;;;;;;;;;10311832;28;20065;-77
2023/03/08 16:21:42;;;;;;;3.35;2.00;;;;;;;;;;10313320;28;20312;-76
2023/03/08 16:26:44;;;;;;;5.13;3.20;;;;;;;;;;10292606;28;20097;-78
2023/03/08 16:31:45;;;;;;;3.97;2.60;;;;;;;;;;10312715;28;20066;-75
2023/03/08 16:36:45;;;;;;;4.10;3.00;;;;;;;;;;10307976;28;20306;-77
2023/03/08 16:41:46;;;;;;;4.38;3.00;;;;;;;;;;10296775;28;20426;-81
2023/03/08 16:46:47;;;;;;;5.93;3.00;;;;;;;;;;10311495;28;20061;-81
2023/03/08 16:51:49;;;;;;;4.97;2.90;;;;;;;;;;10294465;28;20057;-77
2023/03/08 16:56:50;;;;;;;5.50;2.83;;;;;;;;;;10289618;28;20517;-77
2023/03/08 17:01:51;;;;;;;10.65;4.75;;;;;;;;;;10307082;28;20054;-77
2023/03/08 17:06:51;;;;;;;11.18;4.25;;;;;;;;;;10310438;28;20051;-76
2023/03/08 17:11:52;;;;;;;8.70;4.73;;;;;;;;;;10303617;28;20050;-77
2023/03/08 17:16:53;;;;;;;7.55;4.40;;;;;;;;;;10317027;28;20333;-78
2023/03/08 17:21:55;;;;;;;6.10;4.35;;;;;;;;;;10297731;28;20061;-76
2023/03/08 17:26:55;;;;;;;6.60;4.72;;;;;;;;;;10310442;28;20062;-77
2023/03/08 17:31:56;;;;;;;8.83;4.80;;;;;;;;;;10309759;28;20050;-76
2023/03/08 17:36:56;;;;;;;7.90;5.45;;;;;;;;;;10308312;28;20375;-78
2023/03/08 17:41:57;;;;;;;8.50;5.32;;;;;;;;;;10307954;28;20058;-76
2023/03/08 17:46:57;;;;;;;9.80;6.18;;;;;;;;;;10299889;28;20050;-77
2023/03/08 17:51:57;;;;;;;10.53;6.73;;;;;;;;;;10299964;28;20112;-76
2023/03/08 17:56:58;;;;;;;8.02;6.18;;;;;;;;;;10288505;28;20321;-76
2023/03/08 18:01:58;;;;;;;10.90;7.37;;;;;;;;;;10292991;28;20121;-75
2023/03/08 18:06:59;;;;;;;10.27;6.38;;;;;;;;;;10315825;28;20302;-77
2023/03/08 18:11:59;;;;;;;9.07;5.85;;;;;;;;;;10293710;28;20430;-77
2023/03/08 18:17:00;;;;;;;8.55;6.97;;;;;;;;;;10305149;28;20045;-76
2023/03/08 18:22:03;;;;;;;15.45;9.15;;;;;;;;;;10287481;28;20054;-75
2023/03/08 18:27:06;;;;;;;13.63;9.82;;;;;;;;;;10301198;28;20054;-75
2023/03/08 18:32:07;;;;;;;;;;;;;;;;;;10305363;28;20137;-76
2023/03/08 18:37:07;;;;;;;14.45;7.88;;;;;;;;;;10304476;28;19977;-77
2023/03/08 18:42:09;;;;;;;10.57;7.13;;;;;;;;;;10303755;28;20049;-76
2023/03/08 18:47:09;;;;;;;7.80;4.72;;;;;;;;;;10303244;28;20292;-75
2023/03/08 18:52:13;;;;;;;4.10;2.28;;;;;;;;;;10302275;28;20049;-76
2023/03/08 18:57:13;;;;;;;2.33;1.30;;;;;;;;;;10304253;28;20465;-76
2023/03/08 19:02:17;;;;;;;2.70;1.50;;;;;;;;;;10305719;28;20057;-75
2023/03/08 19:07:18;;;;;;;2.42;1.40;;;;;;;;;;10312330;28;20663;-75
2023/03/08 19:12:18;;;;;;;2.63;1.30;;;;;;;;;;10312405;28;20043;-73
2023/03/08 19:17:18;;;;;;;2.22;1.35;;;;;;;;;;10312853;28;20146;-73
2023/03/08 19:22:19;;;;;;;3.97;1.93;;;;;;;;;;10291364;28;20052;-74
2023/03/08 19:27:20;;;;;;;2.70;0.90;;;;;;;;;;10294065;28;20308;-75
2023/03/08 19:32:20;;;;;;;1.95;1.33;;;;;;;;;;10294345;28;20069;-77
2023/03/08 19:37:21;;;;;;;2.10;1.40;;;;;;;;;;10310124;28;20081;-75
2023/03/08 19:42:21;;;;;;;2.10;1.65;;;;;;;;;;10293338;28;20047;-74
2023/03/08 19:47:22;;;;;;;2.15;1.80;;;;;;;;;;10311628;28;20046;-78
2023/03/08 19:52:22;;;;;;;3.13;1.73;;;;;;;;;;10312635;28;20042;-76
2023/03/08 19:57:23;;;;;;;1.80;1.50;;;;;;;;;;10309276;28;20058;-75
2023/03/08 20:02:23;;;;;;;2.75;1.60;;;;;;;;;;10313572;28;20049;-77
2023/03/08 20:07:24;;;;;;;2.70;1.70;;;;;;;;;;10311402;28;20064;-73
2023/03/08 20:12:24;;;;;;;5.03;2.97;;;;;;;;;;10304882;28;20096;-74
2023/03/08 20:17:27;;;;;;;4.28;3.00;;;;;;;;;;10308294;28;20078;-76
2023/03/08 20:22:27;;;;;;;4.00;2.22;;;;;;;;;;10312125;28;20042;-78
2023/03/08 20:27:28;;;;;;;4.53;2.67;;;;;;;;;;10296315;28;20140;-77
2023/03/08 20:32:29;;;;;;;3.45;2.20;;;;;;;;;;10293928;28;20453;-77
2023/03/08 20:37:30;;;;;;;2.58;1.80;;;;;;;;;;10311411;28;20046;-78
2023/03/08 20:42:33;;;;;;;3.40;2.00;;;;;;;;;;10296085;28;20054;-77
2023/03/08 20:47:34;;;;;;;2.90;2.10;;;;;;;;;;10305965;28;20050;-76
2023/03/08 20:52:34;;;;;;;2.88;2.35;;;;;;;;;;10313631;28;20057;-77
2023/03/08 20:57:35;;;;;;;2.58;2.00;;;;;;;;;;10309043;28;20414;-78
2023/03/08 21:02:35;;;;;;;3.60;2.58;;;;;;;;;;10300924;28;20042;-79
2023/03/08 21:07:37;;;;;;;3.25;1.95;;;;;;;;;;10343122;28;20046;-78
2023/03/08 21:12:37;;;;;;;2.17;1.65;;;;;;;;;;10343153;28;20133;-78
2023/03/08 21:17:38;;;;;;;2.25;1.30;;;;;;;;;;10364481;28;20134;-81
2023/03/08 21:22:39;;;;;;;1.17;1.08;;;;;;;;;;10354181;28;20042;-77
2023/03/08 21:27:40;;;;;;;1.40;1.17;;;;;;;;;;10310872;28;20101;-77
2023/03/08 21:32:40;;;;;;;2.90;1.08;;;;;;;;;;10312029;28;21136;-74
2023/03/08 21:37:41;;;;;;;2.45;1.23;;;;;;;;;;10312387;28;20053;-75
2023/03/08 21:42:41;;;;;;;1.70;0.90;;;;;;;;;;10307942;28;20727;-76
2023/03/08 21:47:41;;;;;;;0.82;0.70;;;;;;;;;;10296534;28;20052;-74
2023/03/08 21:52:43;;;;;;;0.82;0.70;;;;;;;;;;10310275;28;20449;-77
2023/03/08 21:57:44;;;;;;;0.52;0.50;;;;;;;;;;10291233;28;20088;-75
2023/03/08 22:02:50;;;;;;;0.80;0.80;;;;;;;;;;10291088;28;20481;-78
2023/03/08 22:07:51;;;;;;;0.88;0.70;;;;;;;;;;10307701;28;20054;-75
2023/03/08 22:12:51;;;;;;;1.35;1.00;;;;;;;;;;10309628;28;20030;-77
2023/03/08 22:17:52;;;;;;;1.20;1.00;;;;;;;;;;10309323;28;20061;-76
2023/03/08 22:22:52;;;;;;;2.33;1.77;;;;;;;;;;10305612;28;20038;-77
2023/03/08 22:27:53;;;;;;;2.28;1.33;;;;;;;;;;10307663;28;20058;-76
2023/03/08 22:32:53;;;;;;;2.35;1.63;;;;;;;;;;10307380;28;20054;-75
2023/03/08 22:37:54;;;;;;;2.08;1.10;;;;;;;;;;10287823;28;20058;-76
2023/03/08 22:42:55;;;;;;;4.15;1.70;;;;;;;;;;10290366;28;20072;-75
2023/03/08 22:47:55;;;;;;;3.92;1.30;;;;;;;;;;10259479;28;20046;-75
2023/03/08 22:52:56;;;;;;;1.40;0.97;;;;;;;;;;10310900;28;20374;-74
2023/03/08 22:57:56;;;;;;;1.60;1.13;;;;;;;;;;10314615;28;20304;-77
2023/03/08 23:02:57;;;;;;;1.60;1.50;;;;;;;;;;10293168;28;20154;-76
2023/03/08 23:07:58;;;;;;;3.15;2.10;;;;;;;;;;10294379;28;20058;-75
2023/03/08 23:12:58;;;;;;;3.08;2.70;;;;;;;;;;10287303;28;20053;-75
2023/03/08 23:18:00;;;;;;;3.75;3.10;;;;;;;;;;10310679;28;20515;-74
2023/03/08 23:23:00;;;;;;;5.20;3.15;;;;;;;;;;10292539;28;20055;-76
2023/03/08 23:28:01;;;;;;;3.73;3.03;;;;;;;;;;10307844;28;20051;-75
2023/03/08 23:33:01;;;;;;;5.25;3.47;;;;;;;;;;10304198;28;20800;-75
2023/03/08 23:38:01;;;;;;;4.57;3.70;;;;;;;;;;10290022;28;20058;-76
2023/03/08 23:43:02;;;;;;;5.00;3.80;;;;;;;;;;10307651;28;20522;-76
2023/03/08 23:48:03;;;;;;;4.05;2.53;;;;;;;;;;10307604;28;21476;-76
2023/03/08 23:53:03;;;;;;;3.28;2.65;;;;;;;;;;10299300;28;20062;-74
2023/03/08 23:58:04;;;;;;;3.03;2.47;;;;;;;;;;10300024;28;20077;-76
